Time;durP1;ratioP1;P1;durP2;ratioP2;P2;SDS_P1;SDS_P2;PMS_P1;PMS_P2;Temp;Humidity;BMP_temperature;BMP_pressure;BME280_temperature;BME280_humidity;BME280_pressure;Samples;Min_cycle;Max_cycle;Signal;HPM_P1;HPM_P2
2021/10/01 00:02:20;;;;;;;6.90;4.30;;;10.00;1.00;10.90;101313.00;;;;5027319;28;20532;-76
2021/10/01 00:04:49;;;;;;;6.80;4.70;;;9.90;1.00;10.80;101312.00;;;;5014417;28;20845;-74
2021/10/01 00:07:19;;;;;;;10.57;5.60;;;9.90;1.00;10.80;101299.00;;;;5003352;28;20449;-75
2021/10/01 00:09:47;;;;;;;7.93;5.67;;;9.80;1.00;10.70;101307.00;;;;5011620;28;20461;-74
2021/10/01 00:12:18;;;;;;;14.97;7.00;;;9.80;1.00;10.70;101300.00;;;;5036504;28;20462;-76
2021/10/01 00:14:46;;;;;;;9.13;5.83;;;9.70;1.00;10.70;101307.00;;;;5022856;28;20960;-75
2021/10/01 00:17:15;;;;;;;9.67;7.30;;;9.60;1.00;10.60;101308.00;;;;5022051;28;20482;-76
2021/10/01 00:19:44;;;;;;;12.77;7.93;;;9.60;1.00;10.60;101303.00;;;;5027206;28;20454;-76
2021/10/01 00:22:13;;;;;;;13.80;8.27;;;9.70;1.00;10.60;101299.00;;;;5013232;28;20934;-76
2021/10/01 00:24:43;;;;;;;10.63;7.10;;;9.70;1.00;10.50;101294.00;;;;5015343;28;20475;-76
2021/10/01 00:27:13;;;;;;;18.40;8.03;;;9.70;1.00;10.50;101277.00;;;;5031967;28;20475;-77
2021/10/01 00:29:41;;;;;;;17.10;9.70;;;9.80;1.00;10.50;101286.00;;;;5031877;28;20460;-76
2021/10/01 00:32:10;;;;;;;24.20;11.33;;;9.60;1.00;10.40;101275.00;;;;5013898;28;20474;-75
2021/10/01 00:34:38;;;;;;;17.37;9.60;;;9.50;1.00;10.40;101285.00;;;;5014930;28;20489;-75
2021/10/01 00:37:07;;;;;;;18.53;10.77;;;9.50;1.00;10.40;101274.00;;;;5013408;28;20483;-77
2021/10/01 00:39:35;;;;;;;17.70;10.63;;;9.40;1.00;10.30;101280.00;;;;5018798;28;20461;-76
2021/10/01 00:42:05;;;;;;;15.20;10.00;;;9.40;1.00;10.30;101284.00;;;;5004219;28;20461;-77
2021/10/01 00:44:33;;;;;;;11.10;8.07;;;9.30;1.00;10.30;101274.00;;;;5014437;28;20491;-76
2021/10/01 00:47:02;;;;;;;10.30;7.83;;;9.30;1.00;10.20;101279.00;;;;5010632;28;20446;-77
2021/10/01 00:49:30;;;;;;;11.37;8.23;;;9.20;1.00;10.20;101285.00;;;;5017400;28;20474;-76
2021/10/01 00:51:59;;;;;;;11.80;8.13;;;9.20;1.00;10.10;101271.00;;;;5035399;28;20469;-75
2021/10/01 00:54:27;;;;;;;10.03;7.90;;;9.10;1.00;10.00;101250.00;;;;5025873;28;20540;-74
2021/10/01 00:56:57;;;;;;;10.13;6.90;;;9.10;1.00;10.10;101271.00;;;;4993806;28;20451;-74
2021/10/01 00:59:27;;;;;;;11.70;8.53;;;9.10;1.00;10.10;101286.00;;;;5009778;28;20938;-75
2021/10/01 01:01:55;;;;;;;9.30;7.90;;;9.00;1.00;10.00;101272.00;;;;5011053;28;20453;-75
2021/10/01 01:04:24;;;;;;;10.57;6.50;;;9.10;1.00;10.00;101263.00;;;;5031254;28;20545;-75
2021/10/01 01:07:01;;;;;;;9.07;6.13;;;9.00;1.00;10.00;101250.00;;;;5007974;28;20451;-73
2021/10/01 01:09:37;;;;;;;10.93;6.63;;;9.00;1.00;10.00;101251.00;;;;5027810;28;20464;-78
2021/10/01 01:12:29;;;;;;;8.00;6.40;;;9.10;1.00;9.90;101262.00;;;;5021702;28;20461;-73
2021/10/01 01:15:07;;;;;;;8.33;5.57;;;8.90;1.00;9.90;101242.00;;;;5021336;28;20473;-76
2021/10/01 01:17:43;;;;;;;12.17;5.80;;;8.80;1.00;9.80;101250.00;;;;5008717;28;20962;-73
2021/10/01 01:20:20;;;;;;;11.40;5.67;;;8.80;1.00;9.80;101246.00;;;;5041854;28;20487;-73
2021/10/01 01:23:00;;;;;;;8.83;4.10;;;8.80;1.00;9.80;101262.00;;;;5014504;28;20441;-73
2021/10/01 01:25:59;;;;;;;6.27;3.70;;;8.80;1.00;9.80;101248.00;;;;5013451;28;20461;-74
2021/10/01 01:28:41;;;;;;;7.83;4.13;;;8.80;1.00;9.80;101242.00;;;;5012973;28;21067;-74
2021/10/01 01:31:22;;;;;;;6.33;3.53;;;8.80;1.00;9.80;101242.00;;;;5048050;28;20510;-74
2021/10/01 01:33:57;;;;;;;5.17;3.47;;;8.80;1.00;9.80;101234.00;;;;5014908;28;20820;-73
2021/10/01 01:36:26;;;;;;;6.07;4.60;;;8.80;1.00;9.70;101249.00;;;;4977424;28;20474;-73
2021/10/01 01:38:56;;;;;;;7.77;4.77;;;8.80;1.00;9.70;101233.00;;;;4975868;28;20447;-73
2021/10/01 01:41:26;;;;;;;9.20;4.03;;;8.70;1.00;9.70;101235.00;;;;4975959;28;20446;-73
2021/10/01 01:43:57;;;;;;;6.47;4.53;;;8.70;1.00;9.70;101220.00;;;;4975976;28;20485;-73
2021/10/01 01:46:26;;;;;;;6.30;4.00;;;8.70;1.00;9.70;101217.00;;;;4978594;28;20900;-72
2021/10/01 01:49:08;;;;;;;9.23;4.83;;;8.70;1.00;9.60;101219.00;;;;4983904;28;20513;-74
2021/10/01 01:51:37;;;;;;;7.97;4.30;;;8.60;1.00;9.60;101219.00;;;;5024613;28;20455;-73
2021/10/01 01:54:11;;;;;;;7.60;4.10;;;8.60;1.00;9.60;101222.00;;;;4974745;28;21011;-74
2021/10/01 01:56:41;;;;;;;8.27;5.17;;;8.60;1.00;9.60;101213.00;;;;5008307;28;20876;-75
2021/10/01 01:59:10;;;;;;;6.43;4.40;;;8.60;1.00;9.50;101209.00;;;;4972915;28;20626;-75
2021/10/01 02:01:43;;;;;;;6.90;4.47;;;8.50;1.00;9.50;101196.00;;;;4973459;28;20490;-75
2021/10/01 02:04:21;;;;;;;8.50;3.77;;;8.50;1.00;9.50;101210.00;;;;4983211;28;20450;-75
2021/10/01 02:06:52;;;;;;;4.90;4.00;;;8.40;1.00;9.40;101204.00;;;;4987565;28;20479;-73
2021/10/01 02:09:21;;;;;;;7.00;3.83;;;8.40;1.00;9.40;101204.00;;;;5008815;28;20443;-74
2021/10/01 02:11:50;;;;;;;6.40;4.00;;;8.40;1.00;9.30;101199.00;;;;4994562;28;20446;-74
2021/10/01 02:14:23;;;;;;;5.13;4.37;;;8.40;1.00;9.30;101199.00;;;;4990928;28;20537;-73
2021/10/01 02:16:53;;;;;;;9.03;4.53;;;8.40;1.00;9.30;101183.00;;;;5013520;28;20834;-73
2021/10/01 02:19:28;;;;;;;8.83;4.33;;;8.40;1.00;9.30;101184.00;;;;4978026;28;20819;-72
2021/10/01 02:22:00;;;;;;;8.47;4.30;;;8.40;1.00;9.30;101174.00;;;;5014527;28;20451;-72
2021/10/01 02:24:28;;;;;;;8.23;3.70;;;8.30;1.00;9.20;101173.00;;;;4983231;28;21073;-73
2021/10/01 02:27:07;;;;;;;9.43;4.50;;;8.30;1.00;9.20;101164.00;;;;4980262;28;20826;-73
2021/10/01 02:29:49;;;;;;;7.60;4.20;;;8.30;1.00;9.20;101171.00;;;;4999662;28;20465;-73
2021/10/01 02:32:31;;;;;;;5.57;4.23;;;8.20;1.00;9.20;101179.00;;;;4973283;28;20455;-73
2021/10/01 02:35:02;;;;;;;9.37;4.73;;;8.20;1.00;9.20;101159.00;;;;4984400;28;20960;-74
2021/10/01 02:37:31;;;;;;;6.60;4.23;;;8.20;1.00;9.10;101171.00;;;;5005653;28;20489;-73
2021/10/01 02:40:01;;;;;;;6.17;4.43;;;8.10;1.00;9.10;101164.00;;;;5017722;28;20449;-74
2021/10/01 02:42:30;;;;;;;9.70;4.27;;;8.10;1.00;9.00;101158.00;;;;5012933;28;20528;-76
2021/10/01 02:44:59;;;;;;;5.40;3.63;;;8.10;1.00;9.00;101141.00;;;;5031375;28;20518;-74
2021/10/01 02:47:32;;;;;;;7.57;4.43;;;8.10;1.00;9.00;101124.00;;;;4994617;28;20969;-74
2021/10/01 02:50:08;;;;;;;7.77;4.17;;;8.10;1.00;9.00;101169.00;;;;4994234;28;20469;-75
2021/10/01 02:52:45;;;;;;;4.93;4.20;;;8.00;1.00;9.00;101156.00;;;;4974628;28;20438;-74
2021/10/01 02:55:59;;;;;;;3.93;3.50;;;8.00;1.00;9.00;101145.00;;;;5001903;28;21001;-74
2021/10/01 02:58:38;;;;;;;7.00;3.80;;;8.10;1.00;9.00;101147.00;;;;4997448;28;20445;-75
2021/10/01 03:01:10;;;;;;;5.00;3.47;;;8.20;1.00;9.00;101148.00;;;;4991150;28;20454;-73
2021/10/01 03:03:44;;;;;;;7.30;3.90;;;8.20;1.00;8.90;101150.00;;;;4993805;28;20450;-73
2021/10/01 03:06:15;;;;;;;5.80;4.13;;;8.10;1.00;8.90;101157.00;;;;4993479;28;20462;-74
2021/10/01 03:08:44;;;;;;;5.80;4.47;;;8.00;1.00;8.90;101141.00;;;;4993509;28;20501;-73
2021/10/01 03:11:14;;;;;;;5.23;4.13;;;8.00;1.00;8.80;101143.00;;;;5000563;28;20445;-74
2021/10/01 03:13:46;;;;;;;6.60;4.23;;;8.00;1.00;8.80;101138.00;;;;5002212;28;20543;-75
2021/10/01 03:16:18;;;;;;;7.40;4.50;;;7.90;1.00;8.80;101129.00;;;;4993193;28;21072;-74
2021/10/01 03:18:51;;;;;;;7.03;4.40;;;7.90;1.00;8.80;101105.00;;;;4991396;28;20452;-74
2021/10/01 03:21:23;;;;;;;4.57;4.10;;;7.80;1.00;8.80;101126.00;;;;5006782;28;20450;-74
2021/10/01 03:23:53;;;;;;;7.53;4.53;;;7.80;1.00;8.70;101115.00;;;;4999122;28;21049;-74
2021/10/01 03:26:25;;;;;;;5.60;4.50;;;7.80;1.00;8.70;101131.00;;;;5028768;28;20508;-74
2021/10/01 03:28:53;;;;;;;5.10;4.10;;;7.70;1.00;8.70;101128.00;;;;5003790;28;20452;-75
2021/10/01 03:31:25;;;;;;;5.47;4.23;;;7.80;1.00;8.70;101125.00;;;;5021231;28;20489;-74
2021/10/01 03:33:55;;;;;;;5.83;4.30;;;7.70;1.00;8.70;101133.00;;;;4994864;28;20548;-73
2021/10/01 03:36:25;;;;;;;8.40;3.80;;;7.70;1.00;8.70;101128.00;;;;5001240;28;20477;-73
2021/10/01 03:38:58;;;;;;;6.10;4.00;;;7.70;1.00;8.60;101128.00;;;;5002163;28;20457;-73
2021/10/01 03:41:26;;;;;;;4.73;4.07;;;7.60;1.00;8.60;101116.00;;;;4996680;28;20450;-73
2021/10/01 03:43:56;;;;;;;8.50;4.30;;;7.60;1.00;8.60;101137.00;;;;4996973;28;20453;-73
2021/10/01 03:46:24;;;;;;;6.67;4.20;;;7.60;1.00;8.50;101120.00;;;;5021749;28;20473;-73
2021/10/01 03:48:57;;;;;;;7.07;4.10;;;7.60;1.00;8.50;101132.00;;;;4996598;28;20450;-74
2021/10/01 03:51:31;;;;;;;5.83;3.60;;;7.60;1.00;8.50;101102.00;;;;4996449;28;20542;-73
2021/10/01 03:54:00;;;;;;;4.80;4.07;;;7.60;1.00;8.50;101120.00;;;;4993306;28;20470;-73
2021/10/01 03:56:30;;;;;;;6.07;4.13;;;7.60;1.00;8.50;101129.00;;;;4988402;28;20530;-73
2021/10/01 03:58:58;;;;;;;10.00;4.37;;;7.50;1.00;8.40;101119.00;;;;5014091;28;20500;-74
2021/10/01 04:01:27;;;;;;;10.97;4.50;;;7.50;1.00;8.40;101126.00;;;;5029883;28;20445;-74
2021/10/01 04:03:55;;;;;;;7.90;4.47;;;7.50;1.00;8.40;101115.00;;;;4996620;28;20544;-73
2021/10/01 04:06:23;;;;;;;6.63;4.23;;;7.50;1.00;8.30;101138.00;;;;4999559;28;20537;-76
2021/10/01 04:08:54;;;;;;;4.90;4.00;;;7.50;1.00;8.40;101111.00;;;;5029179;28;20810;-74
2021/10/01 04:11:23;;;;;;;4.43;3.50;;;7.40;1.00;8.40;101113.00;;;;4996563;28;20469;-73
2021/10/01 04:13:51;;;;;;;6.90;4.50;;;7.50;1.00;8.30;101114.00;;;;5013384;28;20474;-74
2021/10/01 04:16:19;;;;;;;6.53;3.87;;;7.40;1.00;8.30;101112.00;;;;5028208;28;20474;-73
2021/10/01 04:18:48;;;;;;;8.60;5.43;;;7.40;1.00;8.30;101094.00;;;;5031867;28;20480;-72
2021/10/01 04:21:16;;;;;;;4.77;4.27;;;7.40;1.00;8.30;101055.00;;;;5009576;28;20510;-75
2021/10/01 04:23:44;;;;;;;7.90;5.10;;;7.50;1.00;8.30;101090.00;;;;5004739;28;20455;-73
2021/10/01 04:26:20;;;;;;;7.97;5.50;;;7.40;1.00;8.30;101038.00;;;;5023389;28;20556;-75
2021/10/01 04:28:48;;;;;;;9.13;5.30;;;7.40;1.00;8.30;101090.00;;;;4997694;28;20454;-74
2021/10/01 04:31:19;;;;;;;10.73;4.90;;;7.40;1.00;8.30;101085.00;;;;5033653;28;20977;-73
2021/10/01 04:33:47;;;;;;;9.90;4.97;;;7.40;1.00;8.30;101090.00;;;;4993661;28;20453;-73
2021/10/01 04:36:21;;;;;;;6.00;4.53;;;7.40;1.00;8.30;101066.00;;;;4993782;28;20482;-73
2021/10/01 04:38:50;;;;;;;7.53;3.80;;;7.50;1.00;8.30;101093.00;;;;5027985;28;20451;-72
2021/10/01 04:41:19;;;;;;;9.00;4.50;;;7.70;1.00;8.30;101103.00;;;;5012377;28;20540;-72
2021/10/01 04:43:48;;;;;;;10.87;4.93;;;7.60;1.00;8.30;101100.00;;;;5028949;28;20532;-74
2021/10/01 04:46:33;;;;;;;9.03;5.00;;;7.60;1.00;8.30;101089.00;;;;4999511;28;20457;-74
2021/10/01 04:49:01;;;;;;;7.93;4.87;;;7.60;1.00;8.20;101088.00;;;;5013012;28;20464;-74
2021/10/01 04:51:29;;;;;;;8.00;4.67;;;7.60;1.00;8.20;101101.00;;;;5009734;28;20493;-75
2021/10/01 04:53:58;;;;;;;9.43;4.70;;;7.50;1.00;8.20;101087.00;;;;5006481;28;20434;-74
2021/10/01 04:56:28;;;;;;;9.57;4.50;;;7.50;1.00;8.20;101089.00;;;;4993262;28;20470;-74
2021/10/01 04:58:57;;;;;;;7.90;4.83;;;7.40;1.00;8.20;101081.00;;;;5033662;28;20445;-72
2021/10/01 05:02:01;;;;;;;9.57;6.07;;;7.40;1.00;8.10;101082.00;;;;5027758;28;20463;-72
2021/10/01 05:04:51;;;;;;;10.77;5.00;;;7.20;1.00;8.10;101080.00;;;;5002614;28;20478;-73
2021/10/01 05:07:38;;;;;;;11.40;4.70;;;7.20;1.00;8.10;101072.00;;;;5005466;28;20486;-75
2021/10/01 05:10:25;;;;;;;9.97;4.47;;;7.20;1.00;8.10;101078.00;;;;5017532;28;20477;-73
2021/10/01 05:13:14;;;;;;;9.63;4.50;;;7.20;1.00;8.10;101085.00;;;;5013877;28;20456;-74
2021/10/01 05:16:03;;;;;;;11.20;4.97;;;7.30;1.00;8.10;101078.00;;;;5020819;28;20528;-72
2021/10/01 05:18:50;;;;;;;8.13;4.60;;;7.30;1.00;8.10;101100.00;;;;5031417;28;20553;-72
2021/10/01 05:21:37;;;;;;;7.03;5.23;;;7.40;1.00;8.10;101090.00;;;;5017403;28;20461;-72
2021/10/01 05:24:07;;;;;;;7.97;3.90;;;7.30;1.00;8.10;101096.00;;;;4994949;28;20446;-74
2021/10/01 05:26:36;;;;;;;9.53;4.90;;;7.40;1.00;8.20;101103.00;;;;4994984;28;20446;-73
2021/10/01 05:29:05;;;;;;;10.00;5.80;;;7.40;1.00;8.20;101094.00;;;;5027830;28;20449;-73
2021/10/01 05:31:34;;;;;;;12.13;5.60;;;7.40;1.00;8.20;101104.00;;;;5016869;28;20465;-73
2021/10/01 05:34:02;;;;;;;11.53;5.40;;;7.40;1.00;8.20;101077.00;;;;5028085;28;20477;-72
2021/10/01 05:36:32;;;;;;;10.43;5.70;;;7.40;1.00;8.20;101104.00;;;;4998541;28;20473;-73
2021/10/01 05:39:02;;;;;;;9.60;4.97;;;7.50;1.00;8.30;101092.00;;;;4994819;28;20989;-72
2021/10/01 05:41:30;;;;;;;13.77;5.50;;;7.50;1.00;8.30;101082.00;;;;4993459;28;20443;-73
2021/10/01 05:43:59;;;;;;;17.40;6.20;;;7.60;1.00;8.30;101093.00;;;;4996469;28;20525;-76
2021/10/01 05:46:29;;;;;;;14.10;5.90;;;7.50;1.00;8.30;101090.00;;;;5013309;28;20488;-75
2021/10/01 05:49:38;;;;;;;8.57;6.27;;;7.60;1.00;8.40;101090.00;;;;4974327;28;20539;-73
2021/10/01 05:52:36;;;;;;;9.80;6.40;;;7.50;1.00;8.40;101099.00;;;;5016118;28;20526;-74
2021/10/01 05:55:23;;;;;;;11.57;6.20;;;7.60;1.00;8.40;101088.00;;;;5043877;23;20497;-77
2021/10/01 05:58:12;;;;;;;11.37;6.80;;;7.70;1.00;8.50;101100.00;;;;5027984;28;20987;-77
2021/10/01 06:00:49;;;;;;;11.10;6.33;;;7.70;1.00;8.50;101095.00;;;;5016076;28;20452;-77
2021/10/01 06:03:19;;;;;;;12.00;5.97;;;7.80;1.00;8.60;101094.00;;;;5034469;28;20503;-77
2021/10/01 06:05:48;;;;;;;8.63;5.87;;;7.90;1.00;8.70;101095.00;;;;5007670;28;20489;-77
2021/10/01 06:08:17;;;;;;;16.83;6.73;;;7.90;1.00;8.70;101076.00;;;;5022476;28;20462;-76
2021/10/01 06:10:45;;;;;;;13.20;6.97;;;8.00;1.00;8.80;101080.00;;;;5023085;28;20453;-77
2021/10/01 06:13:13;;;;;;;16.30;6.50;;;8.10;1.00;9.00;101090.00;;;;5019439;28;20958;-77
2021/10/01 06:15:42;;;;;;;16.93;7.57;;;8.30;1.00;9.00;101091.00;;;;4989709;28;20524;-77
2021/10/01 06:18:11;;;;;;;16.90;6.83;;;8.30;1.00;9.10;101076.00;;;;5011528;28;20468;-77
2021/10/01 06:20:40;;;;;;;18.43;6.10;;;8.40;1.00;9.20;101076.00;;;;5017876;28;20505;-76
2021/10/01 06:23:09;;;;;;;13.00;5.73;;;8.40;1.00;9.30;101076.00;;;;5027824;28;20492;-77
2021/10/01 06:25:37;;;;;;;8.80;4.80;;;8.40;1.00;9.50;101073.00;;;;5011063;28;20494;-77
2021/10/01 06:28:05;;;;;;;8.63;5.83;;;8.50;1.00;9.60;101084.00;;;;5028151;28;20899;-77
2021/10/01 06:30:34;;;;;;;7.63;5.20;;;8.60;1.00;9.70;101047.00;;;;5019608;28;20458;-77
2021/10/01 06:33:02;;;;;;;9.87;4.57;;;8.70;1.00;9.80;101071.00;;;;5014123;28;20941;-77
2021/10/01 06:35:31;;;;;;;7.30;5.30;;;8.80;1.00;9.90;101068.00;;;;5006650;28;20485;-77
2021/10/01 06:38:01;;;;;;;11.57;4.87;;;8.90;1.00;9.90;101080.00;;;;4994441;28;20464;-77
2021/10/01 06:40:30;;;;;;;8.83;4.77;;;8.90;1.00;9.80;101074.00;;;;4997121;28;20454;-77
2021/10/01 06:43:01;;;;;;;11.03;4.60;;;9.00;1.00;10.00;101078.00;;;;5016780;28;20460;-77
2021/10/01 06:45:31;;;;;;;9.00;4.83;;;9.10;1.00;10.10;101078.00;;;;5018450;28;20554;-77
2021/10/01 06:48:12;;;;;;;13.37;5.97;;;9.10;1.00;10.10;101083.00;;;;5018297;28;20453;-77
2021/10/01 07:22:01;;;;;;;8.10;6.17;;;9.90;1.00;10.90;101025.00;;;;5015107;28;20508;-77
2021/10/01 07:39:20;;;;;;;12.00;5.90;;;10.50;1.00;11.40;101063.00;;;;5010609;28;20534;-77
2021/10/01 08:20:41;;;;;;;7.27;5.30;;;11.90;1.00;12.60;101030.00;;;;5013088;28;20482;-77
2021/10/01 08:23:11;;;;;;;7.77;4.00;;;12.00;1.00;12.60;101048.00;;;;5022092;28;20458;-76
2021/10/01 08:25:40;;;;;;;10.03;4.60;;;12.10;1.00;12.60;101046.00;;;;5019519;28;20477;-76
2021/10/01 08:28:09;;;;;;;7.53;4.63;;;12.20;1.00;12.70;101017.00;;;;5015838;28;20509;-77
2021/10/01 08:31:04;;;;;;;9.50;4.40;;;12.30;1.00;12.80;101020.00;;;;5019822;28;20452;-76
2021/10/01 08:33:34;;;;;;;8.60;4.33;;;12.40;1.00;12.90;101044.00;;;;5011296;28;20990;-76
2021/10/01 08:36:03;;;;;;;9.93;4.93;;;12.50;1.00;13.00;101041.00;;;;5004456;28;20474;-76
2021/10/01 08:38:32;;;;;;;8.20;4.40;;;12.60;1.00;13.10;101048.00;;;;4998207;28;20442;-77
2021/10/01 08:41:00;;;;;;;7.63;4.57;;;12.70;1.00;13.20;101036.00;;;;5017017;28;20524;-77
2021/10/01 08:43:31;;;;;;;4.13;3.73;;;12.80;1.00;13.40;101050.00;;;;5025586;28;20477;-77
2021/10/01 08:46:00;;;;;;;5.77;4.40;;;13.00;1.00;13.40;101031.00;;;;5036453;28;20514;-76
2021/10/01 08:48:28;;;;;;;6.30;3.93;;;13.10;1.00;13.40;101031.00;;;;5034444;28;20509;-78
2021/10/01 08:50:59;;;;;;;6.47;4.60;;;13.20;1.00;13.40;101030.00;;;;5016150;28;20959;-77
2021/10/01 08:53:28;;;;;;;10.60;4.03;;;13.20;1.00;13.60;101038.00;;;;5018107;28;20476;-78
2021/10/01 08:55:58;;;;;;;6.30;3.70;;;13.30;1.00;13.70;101022.00;;;;4998901;28;20480;-78
2021/10/01 08:58:28;;;;;;;6.77;4.53;;;13.40;1.00;13.90;101005.00;;;;4984306;28;21020;-78
2021/10/01 09:00:59;;;;;;;10.77;4.20;;;13.60;1.00;14.00;101028.00;;;;4982656;28;20446;-78
2021/10/01 09:03:28;;;;;;;10.33;4.40;;;13.70;1.00;14.00;101016.00;;;;5010066;28;20457;-79
2021/10/01 09:05:58;;;;;;;13.63;4.73;;;13.90;1.00;14.00;100990.00;;;;5035695;28;20481;-78
2021/10/01 09:08:29;;;;;;;6.53;4.50;;;13.90;1.00;14.20;101014.00;;;;5007763;28;20449;-78
2021/10/01 09:11:02;;;;;;;7.13;5.30;;;13.90;1.00;14.20;101024.00;;;;5016577;28;20465;-78
2021/10/01 09:13:35;;;;;;;4.60;3.17;;;14.00;1.00;14.20;101008.00;;;;5006607;28;21153;-77
2021/10/01 09:16:08;;;;;;;8.93;3.90;;;14.00;1.00;14.30;101006.00;;;;5008172;28;20458;-77
2021/10/01 09:18:38;;;;;;;8.30;3.77;;;14.10;1.00;14.30;100994.00;;;;5006081;28;20470;-77
2021/10/01 09:21:11;;;;;;;5.93;3.50;;;14.10;1.00;14.40;101014.00;;;;5004884;28;20459;-77
2021/10/01 09:23:44;;;;;;;5.80;3.60;;;14.10;1.00;14.40;100974.00;;;;5017781;28;20586;-78
2021/10/01 09:26:16;;;;;;;9.57;4.50;;;14.20;1.00;14.50;101004.00;;;;4990486;28;20458;-78
2021/10/01 09:28:53;;;;;;;5.93;3.63;;;14.30;1.00;14.60;100993.00;;;;5004363;28;20538;-78
2021/10/01 09:31:44;;;;;;;3.70;2.90;;;14.40;1.00;14.60;100988.00;;;;4978499;28;20462;-78
2021/10/01 09:34:16;;;;;;;5.37;2.63;;;14.50;1.00;14.60;100982.00;;;;5000433;28;20473;-78
2021/10/01 09:36:59;;;;;;;6.83;3.37;;;14.50;1.00;14.70;100984.00;;;;5028542;28;20544;-77
2021/10/01 09:39:31;;;;;;;5.13;2.63;;;14.50;1.00;14.80;100979.00;;;;4992181;28;20477;-78
2021/10/01 09:42:10;;;;;;;5.83;2.97;;;14.60;1.00;14.80;100945.00;;;;4995667;28;20451;-78
2021/10/01 09:44:47;;;;;;;9.03;2.90;;;14.70;1.00;14.90;100966.00;;;;5008953;28;20470;-77
2021/10/01 09:47:17;;;;;;;5.33;2.80;;;14.90;1.00;15.00;100944.00;;;;5004751;28;20943;-77
2021/10/01 09:49:45;;;;;;;3.53;2.50;;;14.90;1.00;15.10;100952.00;;;;4998380;28;20435;-78
2021/10/01 09:52:15;;;;;;;5.90;2.67;;;15.00;1.00;15.10;100944.00;;;;4997901;28;20458;-78
2021/10/01 09:54:43;;;;;;;6.00;2.30;;;15.10;1.00;15.20;100955.00;;;;4999091;28;20485;-78
2021/10/01 09:57:13;;;;;;;4.53;2.47;;;15.10;1.00;15.20;100943.00;;;;5012516;28;20496;-78
2021/10/01 09:59:42;;;;;;;5.57;2.80;;;15.20;1.00;15.30;100949.00;;;;4999588;28;20454;-78
2021/10/01 10:02:12;;;;;;;6.07;2.30;;;15.40;1.00;15.40;100937.00;;;;5015129;28;20524;-78
2021/10/01 10:04:47;;;;;;;4.43;2.50;;;15.50;1.00;15.40;100941.00;;;;4990317;28;20475;-78
2021/10/01 10:07:20;;;;;;;4.83;2.80;;;15.60;1.00;15.40;100929.00;;;;5012927;28;20480;-78
2021/10/01 10:09:51;;;;;;;4.33;2.93;;;15.60;1.00;15.60;100935.00;;;;5016738;28;20549;-78
2021/10/01 10:12:27;;;;;;;4.27;2.20;;;15.70;1.00;15.60;100927.00;;;;4995878;28;20446;-77
2021/10/01 10:14:56;;;;;;;3.97;2.17;;;15.80;1.00;15.80;100932.00;;;;5019104;28;20611;-78
2021/10/01 10:17:28;;;;;;;5.60;2.63;;;15.80;1.00;15.80;100910.00;;;;5004342;28;20481;-78
2021/10/01 10:19:59;;;;;;;5.63;2.63;;;16.00;1.00;15.90;100927.00;;;;4998328;28;20457;-78
2021/10/01 10:22:32;;;;;;;5.40;2.47;;;16.00;1.00;16.00;100915.00;;;;5002809;28;20433;-77
2021/10/01 10:25:00;;;;;;;4.93;2.17;;;16.10;1.00;16.10;100923.00;;;;5011385;28;20472;-78
2021/10/01 10:27:29;;;;;;;5.83;2.73;;;16.30;1.00;16.10;100910.00;;;;5015216;28;20549;-77
2021/10/01 10:29:59;;;;;;;4.03;2.40;;;16.40;1.00;16.20;100915.00;;;;5028330;28;20454;-76
2021/10/01 10:32:31;;;;;;;4.70;2.73;;;16.50;1.00;16.40;100890.00;;;;5024782;28;20556;-76
2021/10/01 10:35:04;;;;;;;6.13;2.30;;;16.70;1.00;16.40;100863.00;;;;5021580;28;20568;-77
2021/10/01 10:37:40;;;;;;;5.40;2.23;;;16.80;1.00;16.60;100904.00;;;;5026563;28;20463;-77
2021/10/01 10:40:11;;;;;;;6.10;2.23;;;17.00;1.00;16.60;100886.00;;;;4995978;28;20449;-76
2021/10/01 10:42:44;;;;;;;3.70;2.20;;;17.00;1.00;16.70;100889.00;;;;5037000;28;20432;-77
2021/10/01 10:45:21;;;;;;;6.43;2.30;;;17.00;1.00;16.70;100879.00;;;;5027631;28;20493;-77
2021/10/01 10:47:55;;;;;;;5.43;2.13;;;17.10;1.00;16.80;100874.00;;;;5020897;28;20890;-77
2021/10/01 10:50:51;;;;;;;5.40;1.90;;;17.10;1.00;16.90;100869.00;;;;5023613;28;20467;-78
2021/10/01 10:53:32;;;;;;;5.80;2.00;;;17.30;1.00;16.90;100832.00;;;;4999203;28;20477;-77
2021/10/01 10:56:15;;;;;;;3.70;1.87;;;17.30;1.00;17.00;100856.00;;;;5008753;28;20820;-77
2021/10/01 10:58:52;;;;;;;3.17;1.73;;;17.40;1.00;17.10;100856.00;;;;5037672;28;20471;-77
2021/10/01 11:01:43;;;;;;;3.90;1.77;;;17.50;1.00;17.10;100853.00;;;;5024709;28;20825;-78
2021/10/01 11:04:40;;;;;;;4.60;1.93;;;17.60;1.00;17.20;100811.00;;;;5024241;28;20465;-78
2021/10/01 11:07:49;;;;;;;5.63;2.33;;;17.70;1.00;17.30;100834.00;;;;5014194;28;20456;-77
2021/10/01 11:10:39;;;;;;;6.37;1.53;;;17.80;1.00;17.40;100832.00;;;;5028915;28;20963;-77
2021/10/01 11:13:33;;;;;;;5.53;3.00;;;17.90;1.00;17.50;100827.00;;;;5005353;28;20462;-77
2021/10/01 11:16:21;;;;;;;4.97;1.90;;;17.90;1.00;17.50;100820.00;;;;5016068;28;20452;-77
2021/10/01 11:19:04;;;;;;;4.87;1.80;;;18.00;1.00;17.50;100819.00;;;;5032303;28;20564;-78
2021/10/01 11:21:36;;;;;;;5.17;2.10;;;17.90;1.00;17.60;100817.00;;;;5020494;28;20480;-78
2021/10/01 11:24:09;;;;;;;4.10;1.80;;;17.90;1.00;17.60;100819.00;;;;5019162;28;20539;-77
2021/10/01 11:26:43;;;;;;;4.70;2.00;;;18.10;1.00;17.70;100806.00;;;;5023968;28;20572;-77
2021/10/01 11:29:24;;;;;;;4.60;1.80;;;18.10;1.00;17.80;100820.00;;;;5005864;28;20871;-77
2021/10/01 11:31:56;;;;;;;4.50;1.97;;;18.20;1.00;17.90;100807.00;;;;5008008;28;20548;-77
2021/10/01 11:34:38;;;;;;;3.30;1.43;;;18.30;1.00;17.90;100797.00;;;;5031710;28;20484;-76
2021/10/01 11:37:25;;;;;;;4.07;1.70;;;18.30;1.00;17.80;100768.00;;;;5011750;28;20448;-77
2021/10/01 11:39:56;;;;;;;2.80;1.30;;;18.20;1.00;17.90;100803.00;;;;5030949;28;20889;-77
2021/10/01 11:42:28;;;;;;;3.40;1.73;;;18.20;1.00;17.90;100801.00;;;;5023319;28;20457;-77
2021/10/01 11:45:00;;;;;;;3.20;1.60;;;18.30;1.00;18.10;100783.00;;;;5013241;28;20469;-77
2021/10/01 11:47:29;;;;;;;3.03;1.43;;;18.40;1.00;18.20;100784.00;;;;5022368;28;20458;-77
2021/10/01 11:50:00;;;;;;;3.50;1.63;;;18.50;1.00;18.20;100780.00;;;;4998257;28;20461;-77
2021/10/01 11:52:29;;;;;;;4.97;1.80;;;18.60;1.00;18.20;100775.00;;;;5033528;28;20535;-77
2021/10/01 11:55:01;;;;;;;4.50;2.70;;;18.50;1.00;18.30;100776.00;;;;5000429;28;20492;-77
2021/10/01 11:57:37;;;;;;;3.30;1.60;;;18.60;1.00;18.30;100774.00;;;;5015203;28;20576;-77
2021/10/01 12:00:11;;;;;;;3.67;1.50;;;18.70;1.00;18.40;100782.00;;;;5010839;28;20552;-78
2021/10/01 12:02:44;;;;;;;3.50;1.53;;;18.80;1.00;18.40;100763.00;;;;5025580;28;20464;-77
2021/10/01 12:05:21;;;;;;;5.40;1.50;;;18.80;1.00;18.40;100770.00;;;;5022013;28;20492;-77
2021/10/01 12:07:52;;;;;;;5.27;1.90;;;18.80;1.00;18.60;100763.00;;;;5024596;28;20461;-77
2021/10/01 12:10:23;;;;;;;2.50;1.90;;;18.90;1.00;18.60;100762.00;;;;4997099;28;20464;-76
2021/10/01 12:13:09;;;;;;;3.57;1.73;;;18.90;1.00;18.70;100763.00;;;;5004871;28;21006;-77
2021/10/01 12:15:48;;;;;;;3.93;1.63;;;19.00;1.00;18.80;100753.00;;;;5013273;28;20569;-77
2021/10/01 12:18:30;;;;;;;4.27;1.73;;;19.10;1.00;18.90;100746.00;;;;5011587;28;20462;-78
2021/10/01 12:21:02;;;;;;;2.50;2.00;;;19.10;1.00;18.90;100744.00;;;;4999807;28;20446;-77
2021/10/01 12:23:35;;;;;;;3.10;1.50;;;19.20;1.00;19.00;100744.00;;;;4985114;28;20458;-77
2021/10/01 12:26:26;;;;;;;5.13;1.70;;;19.40;1.00;19.00;100720.00;;;;5027245;28;20513;-78
2021/10/01 12:29:13;;;;;;;3.40;1.30;;;19.40;1.00;19.10;100710.00;;;;5023548;28;20467;-78
2021/10/01 12:31:47;;;;;;;2.70;1.40;;;19.40;1.00;19.10;100698.00;;;;5023910;28;21037;-78
2021/10/01 12:34:20;;;;;;;7.87;1.60;;;19.40;1.00;19.10;100705.00;;;;5034646;28;20461;-78
2021/10/01 12:36:51;;;;;;;2.57;1.33;;;19.50;1.00;19.20;100713.00;;;;5026207;28;20457;-78
2021/10/01 12:39:20;;;;;;;6.27;2.00;;;19.60;1.00;19.30;100717.00;;;;5024171;28;20693;-78
2021/10/01 12:41:57;;;;;;;3.37;1.40;;;19.70;1.00;19.30;100704.00;;;;5034579;28;20454;-78
2021/10/01 12:44:27;;;;;;;4.90;1.97;;;19.80;1.00;19.40;100706.00;;;;5048821;28;20480;-78
2021/10/01 12:46:57;;;;;;;8.37;1.50;;;19.90;1.00;19.40;100709.00;;;;5003920;28;20538;-78
2021/10/01 12:49:28;;;;;;;4.70;1.30;;;19.90;1.00;19.50;100687.00;;;;5014085;28;20533;-78
2021/10/01 12:52:08;;;;;;;5.63;3.20;;;19.90;1.00;19.50;100688.00;;;;5019520;28;20465;-78
2021/10/01 12:54:44;;;;;;;4.00;1.93;;;19.90;1.00;19.60;100680.00;;;;4984176;28;20521;-77